createdAt,value
2022-12-15T00:00:42.031Z,-0.41
2022-12-15T00:03:44.114Z,-0.50
2022-12-15T00:06:46.150Z,-0.48
2022-12-15T00:09:48.104Z,-0.40
2022-12-15T00:12:50.039Z,-0.48
2022-12-15T00:15:53.323Z,-0.50
2022-12-15T00:18:55.426Z,-0.43
2022-12-15T00:21:57.385Z,-0.52
2022-12-15T00:24:59.315Z,-0.59
2022-12-15T00:28:01.295Z,-0.51
2022-12-15T00:31:04.956Z,-0.46
2022-12-15T00:34:07.100Z,-0.46
2022-12-15T00:37:08.998Z,-0.36
2022-12-15T00:40:12.348Z,-0.39
2022-12-15T00:43:16.485Z,-0.39
2022-12-15T00:46:19.859Z,-0.35
2022-12-15T00:49:22.168Z,-0.30
2022-12-15T00:52:24.031Z,-0.29
2022-12-15T00:55:25.939Z,-0.35
2022-12-15T00:58:27.796Z,-0.50
2022-12-15T01:01:31.241Z,-0.48
2022-12-15T01:04:33.390Z,-0.57
2022-12-15T01:07:38.096Z,-0.67
2022-12-15T01:10:40.070Z,-0.71
2022-12-15T01:13:41.959Z,-0.64
2022-12-15T01:16:51.279Z,-0.71
2022-12-15T01:19:53.219Z,-0.81
2022-12-15T01:22:56.158Z,-0.87
2022-12-15T01:25:58.307Z,-0.90
2022-12-15T01:29:00.181Z,-0.88
2022-12-15T01:32:03.572Z,-0.95
2022-12-15T01:35:07.095Z,-0.97
2022-12-15T01:38:09.629Z,-0.96
2022-12-15T01:41:12.073Z,-0.89
2022-12-15T01:44:17.007Z,-0.71
2022-12-15T01:47:24.257Z,-0.79
2022-12-15T01:50:29.783Z,-0.85
2022-12-15T01:53:35.252Z,-0.87
2022-12-15T01:56:41.918Z,-0.92
2022-12-15T01:59:49.541Z,-0.86
2022-12-15T02:02:53.851Z,-0.88
2022-12-15T02:05:57.904Z,-0.79
2022-12-15T02:09:01.487Z,-0.83
2022-12-15T02:12:15.352Z,-0.99
2022-12-15T02:15:20.931Z,-1.04
2022-12-15T02:18:32.544Z,-0.97
2022-12-15T02:21:41.243Z,-1.01
2022-12-15T02:25:06.435Z,-1.01
2022-12-15T02:28:13.527Z,-1.00
2022-12-15T02:31:25.162Z,-0.94
2022-12-15T02:34:35.332Z,-0.92
2022-12-15T02:37:39.342Z,-0.97
2022-12-15T02:40:41.327Z,-1.08
2022-12-15T02:43:43.337Z,-1.11
2022-12-15T02:46:58.561Z,-1.08
2022-12-15T02:50:21.805Z,-1.10
2022-12-15T02:53:40.704Z,-0.96
2022-12-15T02:56:46.872Z,-0.91
2022-12-15T02:59:56.867Z,-1.07
2022-12-15T03:03:00.642Z,-1.00
2022-12-15T03:06:03.272Z,-1.03
2022-12-15T03:09:05.240Z,-1.07
2022-12-15T03:12:08.028Z,-1.00
2022-12-15T03:15:10.867Z,-1.06
2022-12-15T03:18:14.897Z,-0.98
2022-12-15T03:21:16.811Z,-0.93
2022-12-15T03:24:19.200Z,-0.95
2022-12-15T03:27:21.094Z,-0.98
2022-12-15T03:30:23.010Z,-0.92
2022-12-15T03:33:26.429Z,-0.90
2022-12-15T03:36:28.378Z,-0.92
2022-12-15T03:39:30.294Z,-0.90
2022-12-15T03:42:34.099Z,-0.96
2022-12-15T03:45:36.112Z,-0.94
2022-12-15T03:48:39.445Z,-0.83
2022-12-15T03:51:41.291Z,-0.74
2022-12-15T03:54:43.198Z,-0.87
2022-12-15T03:57:46.965Z,-0.92
2022-12-15T04:00:48.968Z,-0.98
2022-12-15T04:03:56.966Z,-0.93
2022-12-15T04:07:02.145Z,-0.79
2022-12-15T04:10:05.763Z,-0.78
2022-12-15T04:13:11.618Z,-0.78
2022-12-15T04:16:19.361Z,-0.88
2022-12-15T04:19:23.450Z,-1.10
2022-12-15T04:22:25.346Z,-1.08
2022-12-15T04:25:28.015Z,-1.36
2022-12-15T04:28:31.954Z,-1.43
2022-12-15T04:31:34.279Z,-1.42
2022-12-15T04:34:37.581Z,-1.48
2022-12-15T04:37:39.530Z,-1.51
2022-12-15T04:40:41.480Z,-1.53
2022-12-15T04:43:43.895Z,-1.64
2022-12-15T04:46:45.868Z,-1.58
2022-12-15T04:49:49.116Z,-1.60
2022-12-15T04:52:51.606Z,-1.55
2022-12-15T04:55:55.582Z,-1.49
2022-12-15T04:58:58.012Z,-1.61
2022-12-15T05:02:02.204Z,-1.67
2022-12-15T05:05:06.151Z,-1.77
2022-12-15T05:08:08.177Z,-1.80
2022-12-15T05:11:10.119Z,-1.84
2022-12-15T05:14:12.067Z,-1.84
2022-12-15T05:17:13.975Z,-1.88
2022-12-15T05:20:17.806Z,-1.89
2022-12-15T05:23:19.691Z,-1.79
2022-12-15T05:26:21.698Z,-1.62
2022-12-15T05:29:23.654Z,-1.61
2022-12-15T05:32:25.682Z,-1.56
2022-12-15T05:35:28.976Z,-1.55
2022-12-15T05:38:30.896Z,-1.61
2022-12-15T05:41:32.870Z,-1.52
2022-12-15T05:44:34.831Z,-1.49
2022-12-15T05:47:36.756Z,-1.65
2022-12-15T05:50:40.305Z,-1.88
2022-12-15T05:53:42.694Z,-1.88
2022-12-15T05:56:44.709Z,-1.74
2022-12-15T05:59:46.612Z,-1.62
2022-12-15T06:02:50.625Z,-1.67
2022-12-15T06:05:56.567Z,-1.83
2022-12-15T06:08:59.630Z,-2.02
2022-12-15T06:12:01.493Z,-1.93
2022-12-15T06:15:03.946Z,-1.87
2022-12-15T06:18:05.938Z,-1.76
2022-12-15T06:21:11.249Z,-1.70
2022-12-15T06:24:13.527Z,-1.62
2022-12-15T06:27:15.456Z,-1.62
2022-12-15T06:30:17.436Z,-1.66
2022-12-15T06:33:19.749Z,-1.55
2022-12-15T06:36:23.346Z,-1.65
2022-12-15T06:39:25.437Z,-1.64
2022-12-15T06:42:27.438Z,-1.59
2022-12-15T06:45:32.145Z,-1.54
2022-12-15T06:48:34.051Z,-1.53
2022-12-15T06:51:38.451Z,-1.49
2022-12-15T06:54:40.371Z,-1.53
2022-12-15T06:57:45.088Z,-1.55
2022-12-15T07:00:49.940Z,-1.57
2022-12-15T07:03:52.269Z,-1.41
2022-12-15T07:06:55.752Z,-1.45
2022-12-15T07:09:57.651Z,-1.44
2022-12-15T07:12:59.546Z,-1.53
2022-12-15T07:16:02.243Z,-1.47
2022-12-15T07:19:04.246Z,-1.51
2022-12-15T07:22:07.551Z,-1.44
2022-12-15T07:25:09.886Z,-1.32
2022-12-15T07:28:11.761Z,-1.34
2022-12-15T07:31:13.712Z,-1.29
2022-12-15T07:34:15.653Z,-1.45
2022-12-15T07:37:26.047Z,-1.41
2022-12-15T07:40:28.027Z,-1.55
2022-12-15T07:43:30.568Z,-1.42
2022-12-15T07:46:33.012Z,-1.34
2022-12-15T07:49:36.166Z,-1.36
2022-12-15T07:52:39.458Z,-1.31
2022-12-15T07:56:05.531Z,-1.54
2022-12-15T07:59:03.401Z,-1.47
2022-12-15T08:02:05.529Z,-1.44
2022-12-15T08:05:08.565Z,-1.37
2022-12-15T08:08:15.336Z,-1.37
2022-12-15T08:11:19.061Z,-1.28
2022-12-15T08:14:21.428Z,-1.34
2022-12-15T08:17:23.664Z,-1.25
2022-12-15T08:20:25.585Z,-1.27
2022-12-15T08:23:29.283Z,-1.15
2022-12-15T08:26:31.783Z,-1.10
2022-12-15T08:29:50.810Z,-1.06
2022-12-15T08:32:53.566Z,-0.94
2022-12-15T08:35:59.909Z,-0.87
2022-12-15T08:39:03.562Z,-0.83
2022-12-15T08:42:05.558Z,-0.79
2022-12-15T08:45:08.592Z,-0.74
2022-12-15T08:48:12.323Z,-0.75
2022-12-15T08:51:15.026Z,-0.64
2022-12-15T08:54:19.072Z,-0.58
2022-12-15T08:57:21.028Z,-0.57
2022-12-15T09:00:23.094Z,-0.59
2022-12-15T09:03:26.120Z,-0.56
2022-12-15T09:06:30.925Z,-0.53
2022-12-15T09:09:34.272Z,-0.49
2022-12-15T09:12:36.147Z,-0.49
2022-12-15T09:16:07.562Z,-0.50
2022-12-15T09:19:00.353Z,-0.59
2022-12-15T09:22:02.458Z,-0.47
2022-12-15T09:25:06.564Z,-0.44
2022-12-15T09:28:08.617Z,-0.48
2022-12-15T09:31:13.907Z,-0.46
2022-12-15T09:34:16.181Z,-0.45
2022-12-15T09:37:18.061Z,-0.43
2022-12-15T09:40:22.033Z,-0.41
2022-12-15T09:43:46.416Z,-0.48
2022-12-15T09:47:01.625Z,-0.43
2022-12-15T09:50:09.656Z,-0.42
2022-12-15T09:53:45.664Z,-0.43
2022-12-15T09:56:49.933Z,-0.32
2022-12-15T10:00:10.193Z,-0.47
2022-12-15T10:03:43.792Z,-0.45
2022-12-15T10:06:51.810Z,-0.51
2022-12-15T10:09:54.634Z,-0.46
2022-12-15T10:13:10.293Z,-0.51
2022-12-15T10:16:21.228Z,-0.48
2022-12-15T10:19:31.477Z,-0.42
2022-12-15T10:22:36.283Z,-0.44
2022-12-15T10:25:38.664Z,-0.43
2022-12-15T10:28:59.642Z,-0.42
2022-12-15T10:32:05.137Z,-0.43
2022-12-15T10:35:13.334Z,-0.45
2022-12-15T10:38:24.185Z,-0.50
2022-12-15T10:41:26.401Z,-0.44
2022-12-15T10:44:37.269Z,-0.50
2022-12-15T10:47:39.154Z,-0.34
2022-12-15T10:50:41.115Z,-0.29
2022-12-15T10:53:50.348Z,-0.24
2022-12-15T10:56:54.495Z,-0.40
2022-12-15T11:00:25.663Z,-0.38
2022-12-15T11:03:27.774Z,-0.34
2022-12-15T11:06:31.773Z,-0.28
2022-12-15T11:09:35.617Z,-0.25
2022-12-15T11:12:37.690Z,-0.22
2022-12-15T11:15:47.162Z,-0.19
2022-12-15T11:18:58.064Z,-0.18
2022-12-15T11:22:04.838Z,0.05
2022-12-15T11:25:20.384Z,0.02
2022-12-15T11:28:28.847Z,-0.05
2022-12-15T11:31:37.508Z,-0.16
2022-12-15T11:34:44.492Z,-0.20
2022-12-15T11:37:52.643Z,-0.08
2022-12-15T11:40:56.913Z,-0.23
2022-12-15T11:44:18.582Z,-0.14
2022-12-15T11:47:34.019Z,-0.25
2022-12-15T11:50:42.762Z,-0.31
2022-12-15T11:54:00.189Z,-0.29
2022-12-15T11:57:16.622Z,-0.34
2022-12-15T12:00:20.156Z,-0.20
2022-12-15T12:03:34.898Z,-0.18
2022-12-15T12:06:48.081Z,-0.18
2022-12-15T12:10:02.971Z,-0.07
2022-12-15T12:13:14.127Z,-0.05
2022-12-15T12:16:28.974Z,0.11
2022-12-15T12:19:37.614Z,0.08
2022-12-15T12:22:49.572Z,0.11
2022-12-15T12:26:03.130Z,-0.06
2022-12-15T12:29:14.533Z,-0.07
2022-12-15T12:32:25.210Z,0.09
2022-12-15T12:35:36.831Z,0.07
2022-12-15T12:38:42.173Z,-0.06
2022-12-15T12:41:50.615Z,-0.16
2022-12-15T12:44:54.369Z,-0.20
2022-12-15T12:48:00.665Z,-0.12
2022-12-15T12:51:21.705Z,-0.14
2022-12-15T12:54:50.291Z,-0.10
2022-12-15T12:57:53.458Z,-0.08
2022-12-15T13:01:06.159Z,-0.30
2022-12-15T13:04:11.129Z,-0.20
2022-12-15T13:10:43.668Z,-0.19
2022-12-15T13:13:51.313Z,-0.24
2022-12-15T13:17:25.022Z,-0.14
2022-12-15T13:20:23.104Z,-0.18
2022-12-15T13:23:37.438Z,-0.38
2022-12-15T13:26:44.746Z,-0.32
2022-12-15T13:29:58.471Z,-0.37
2022-12-15T13:33:16.593Z,-0.34
2022-12-15T13:37:02.976Z,-0.39
2022-12-15T13:40:26.206Z,-0.40
2022-12-15T13:43:46.472Z,-0.41
2022-12-15T13:46:53.031Z,-0.40
2022-12-15T13:50:01.818Z,-0.57
2022-12-15T13:53:23.125Z,-0.61
2022-12-15T13:56:54.771Z,-0.50
2022-12-15T14:00:02.129Z,-0.53
2022-12-15T14:03:05.402Z,-0.56
2022-12-15T14:06:13.523Z,-0.45
2022-12-15T14:09:20.079Z,-0.57
2022-12-15T14:12:23.230Z,-0.68
2022-12-15T14:15:30.004Z,-0.46
2022-12-15T14:18:34.140Z,-0.56
2022-12-15T14:21:36.042Z,-0.51
2022-12-15T14:24:47.045Z,-0.66
2022-12-15T14:27:51.531Z,-0.64
2022-12-15T14:30:58.240Z,-0.61
2022-12-15T14:34:03.762Z,-0.58
2022-12-15T14:37:10.717Z,-0.75
2022-12-15T14:40:15.885Z,-0.58
2022-12-15T14:43:21.064Z,-0.59
2022-12-15T14:46:27.131Z,-0.71
2022-12-15T14:49:38.963Z,-0.70
2022-12-15T14:52:43.513Z,-0.74
2022-12-15T14:55:45.773Z,-0.86
2022-12-15T14:58:48.430Z,-0.79
2022-12-15T15:01:58.702Z,-0.75
2022-12-15T15:05:05.094Z,-0.80
2022-12-15T15:08:13.217Z,-0.88
2022-12-15T15:11:25.841Z,-0.77
2022-12-15T15:14:32.678Z,-0.86
2022-12-15T15:17:38.705Z,-0.81
2022-12-15T15:20:55.502Z,-0.70
2022-12-15T15:23:58.898Z,-0.51
2022-12-15T15:27:25.336Z,-0.69
2022-12-15T15:30:27.450Z,-0.76
2022-12-15T15:33:31.036Z,-0.59
2022-12-15T15:36:34.897Z,-0.81
2022-12-15T15:39:36.798Z,-0.84
2022-12-15T15:42:38.708Z,-0.88
2022-12-15T15:45:43.741Z,-0.83
2022-12-15T15:48:50.541Z,-0.83
2022-12-15T15:51:54.852Z,-0.85
2022-12-15T15:54:56.829Z,-0.96
2022-12-15T15:58:01.573Z,-0.88
2022-12-15T16:01:09.549Z,-0.90
2022-12-15T16:04:16.110Z,-0.83
2022-12-15T16:07:23.100Z,-1.01
2022-12-15T16:10:25.996Z,-0.93
2022-12-15T16:13:28.121Z,-0.89
2022-12-15T16:16:32.020Z,-0.90
2022-12-15T16:19:39.742Z,-0.82
2022-12-15T16:22:44.223Z,-0.95
2022-12-15T16:25:50.940Z,-0.84
2022-12-15T16:28:53.158Z,-0.93
2022-12-15T16:31:55.343Z,-0.86
2022-12-15T16:34:58.676Z,-0.90
2022-12-15T16:38:00.736Z,-0.80
2022-12-15T16:41:06.678Z,-0.89
2022-12-15T16:44:12.513Z,-1.05
2022-12-15T16:47:17.247Z,-0.92
2022-12-15T16:50:24.921Z,-0.90
2022-12-15T16:53:30.687Z,-0.80
2022-12-15T16:56:33.281Z,-0.88
2022-12-15T16:59:36.256Z,-0.98
2022-12-15T17:02:38.519Z,-0.88
2022-12-15T17:05:44.686Z,-0.79
2022-12-15T17:08:51.861Z,-0.82
2022-12-15T17:11:57.817Z,-0.86
2022-12-15T17:14:59.848Z,-0.81
2022-12-15T17:18:01.699Z,-0.82
2022-12-15T17:21:08.276Z,-0.80
2022-12-15T17:24:16.678Z,-0.72
2022-12-15T17:27:25.056Z,-0.66
2022-12-15T17:30:27.550Z,-0.70
2022-12-15T17:33:31.503Z,-0.75
2022-12-15T17:36:35.045Z,-0.79
2022-12-15T17:39:37.534Z,-0.71
2022-12-15T17:42:39.913Z,-0.71
2022-12-15T17:45:42.471Z,-0.77
2022-12-15T17:48:46.184Z,-0.79
2022-12-15T17:51:50.907Z,-0.77
2022-12-15T17:54:53.197Z,-0.88
2022-12-15T17:57:56.233Z,-0.81
2022-12-15T18:00:59.052Z,-0.93
2022-12-15T18:04:02.893Z,-0.91
2022-12-15T18:07:14.144Z,-0.97
2022-12-15T18:10:28.968Z,-0.91
2022-12-15T18:13:35.557Z,-0.93
2022-12-15T18:16:38.806Z,-1.00
2022-12-15T18:19:41.598Z,-0.93
2022-12-15T18:22:46.061Z,-1.11
2022-12-15T18:25:48.846Z,-1.00
2022-12-15T18:28:51.404Z,-1.03
2022-12-15T18:31:53.474Z,-1.08
2022-12-15T18:34:56.741Z,-1.06
2022-12-15T18:38:00.469Z,-1.18
2022-12-15T18:41:03.758Z,-1.29
2022-12-15T18:44:06.588Z,-1.28
2022-12-15T18:47:15.741Z,-1.27
2022-12-15T18:50:20.907Z,-1.17
2022-12-15T18:53:29.333Z,-1.27
2022-12-15T18:56:32.539Z,-1.19
2022-12-15T18:59:35.007Z,-1.21
2022-12-15T19:02:37.810Z,-1.26
2022-12-15T19:05:43.689Z,-1.15
2022-12-15T19:08:48.686Z,-1.09
2022-12-15T19:11:51.255Z,-1.17
2022-12-15T19:14:55.237Z,-1.11
2022-12-15T19:17:57.648Z,-1.16
2022-12-15T19:21:10.482Z,-1.34
2022-12-15T19:24:18.180Z,-1.36
2022-12-15T19:27:25.730Z,-1.31
2022-12-15T19:30:30.607Z,-1.39
2022-12-15T19:33:36.223Z,-1.38
2022-12-15T19:36:39.316Z,-1.52
2022-12-15T19:39:43.441Z,-1.49
2022-12-15T19:42:49.482Z,-1.54
2022-12-15T19:45:52.803Z,-1.54
2022-12-15T19:48:56.856Z,-1.43
2022-12-15T19:51:59.592Z,-1.52
2022-12-15T19:55:03.774Z,-1.32
2022-12-15T19:58:16.862Z,-1.46
2022-12-15T20:01:20.101Z,-1.43
2022-12-15T20:04:24.382Z,-1.45
2022-12-15T20:07:30.633Z,-1.55
2022-12-15T20:10:34.999Z,-1.45
2022-12-15T20:13:37.482Z,-1.46
2022-12-15T20:16:40.901Z,-1.47
2022-12-15T20:19:44.048Z,-1.42
2022-12-15T20:22:50.156Z,-1.45
2022-12-15T20:25:55.085Z,-1.39
2022-12-15T20:29:12.055Z,-1.44
2022-12-15T20:32:17.554Z,-1.37
2022-12-15T20:35:22.226Z,-1.46
2022-12-15T20:38:28.616Z,-1.37
2022-12-15T20:41:32.856Z,-1.35
2022-12-15T20:44:34.814Z,-1.43
2022-12-15T20:47:43.317Z,-1.35
2022-12-15T20:50:47.694Z,-1.26
2022-12-15T20:53:50.487Z,-1.28
2022-12-15T20:56:54.829Z,-1.20
2022-12-15T20:59:57.177Z,-1.28
2022-12-15T21:03:00.713Z,-1.22
2022-12-15T21:06:03.164Z,-1.29
2022-12-15T21:09:10.809Z,-1.21
2022-12-15T21:12:19.562Z,-1.36
2022-12-15T21:15:25.364Z,-1.38
2022-12-15T21:19:10.981Z,-1.37
2022-12-15T21:21:55.312Z,-1.35
2022-12-15T21:24:58.606Z,-1.28
2022-12-15T21:28:01.895Z,-1.35
2022-12-15T21:31:03.903Z,-1.34
2022-12-15T21:34:06.027Z,-1.25
2022-12-15T21:37:20.666Z,-1.27
2022-12-15T21:40:25.789Z,-1.21
2022-12-15T21:43:31.404Z,-1.32
2022-12-15T21:46:33.401Z,-1.41
2022-12-15T21:49:35.334Z,-1.47
2022-12-15T21:52:37.390Z,-1.36
2022-12-15T21:55:39.411Z,-1.40
2022-12-15T21:58:42.940Z,-1.35
2022-12-15T22:01:45.445Z,-1.20
2022-12-15T22:04:47.442Z,-1.48
2022-12-15T22:07:49.895Z,-1.44
2022-12-15T22:10:52.237Z,-1.50
2022-12-15T22:13:57.081Z,-1.50
2022-12-15T22:17:00.167Z,-1.52
2022-12-15T22:20:02.071Z,-1.54
2022-12-15T22:23:04.034Z,-1.49
2022-12-15T22:26:06.061Z,-1.57
2022-12-15T22:29:13.924Z,-1.59
2022-12-15T22:32:17.170Z,-1.57
2022-12-15T22:35:21.838Z,-1.52
2022-12-15T22:38:24.296Z,-1.65
2022-12-15T22:41:26.242Z,-1.59
2022-12-15T22:44:31.842Z,-1.67
2022-12-15T22:47:36.340Z,-1.60
2022-12-15T22:50:39.080Z,-1.55
2022-12-15T22:53:41.334Z,-1.53
2022-12-15T22:56:43.465Z,-1.55
2022-12-15T22:59:53.571Z,-1.47
2022-12-15T23:06:05.887Z,-1.57
2022-12-15T23:09:10.078Z,-1.59
2022-12-15T23:12:11.967Z,-1.70
2022-12-15T23:15:19.854Z,-1.64
2022-12-15T23:18:23.483Z,-1.66
2022-12-15T23:21:28.076Z,-1.62
2022-12-15T23:24:31.581Z,-1.69
2022-12-15T23:27:33.707Z,-1.58
2022-12-15T23:30:37.012Z,-1.50
2022-12-15T23:33:38.918Z,-1.72
2022-12-15T23:36:40.827Z,-1.64
2022-12-15T23:39:42.732Z,-1.62
2022-12-15T23:42:44.610Z,-1.63
2022-12-15T23:45:55.957Z,-1.57
2022-12-15T23:48:58.328Z,-1.49
2022-12-15T23:52:00.197Z,-1.53
2022-12-15T23:55:03.974Z,-1.49
2022-12-15T23:58:05.923Z,-1.62
